Terminal Aerodrome Forecast
Issued by NWS

Home | Current Version | Previous Version | Text Only | Print | Product List | Glossary On
Versions: 1 2 3 4 5 6 7 8 9 10 11 12 13 14 15 16 17 18
000
FTUS45 KABQ 010536
TAFSAF
TAF
KSAF 010536Z 0106/0206 VRB05KT P6SM BKN110
     FM010800 VRB05KT P6SM FEW025 BKN080
      TEMPO 0111/0115 BKN025
     FM011900 24010KT P6SM SCT060 SCT090
     FM012100 23010KT P6SM VCTS SCT060CB BKN090
     FM020100 20009KT P6SM VCSH SCT060 BKN090=

USA.gov is the U.S. government's official web portal to all federal, state and local government web resources and services.